createdAt,value
2023-04-27T00:00:46.310Z,5.30
2023-04-27T00:03:14.676Z,5.30
2023-04-27T00:05:44.503Z,5.30
2023-04-27T00:08:12.737Z,5.30
2023-04-27T00:10:40.970Z,5.30
2023-04-27T00:13:09.071Z,5.40
2023-04-27T00:15:37.255Z,5.30
2023-04-27T00:18:05.648Z,5.40
2023-04-27T00:20:33.877Z,5.40
2023-04-27T00:23:03.398Z,5.40
2023-04-27T00:25:31.592Z,5.40
2023-04-27T00:27:59.772Z,5.40
2023-04-27T00:30:30.124Z,5.30
2023-04-27T00:32:58.388Z,5.30
2023-04-27T00:35:26.604Z,5.20
2023-04-27T00:37:55.720Z,5.20
2023-04-27T00:40:25.227Z,5.20
2023-04-27T00:42:54.186Z,5.20
2023-04-27T00:45:22.667Z,5.20
2023-04-27T00:47:53.884Z,5.20
2023-04-27T00:50:30.155Z,5.20
2023-04-27T00:52:59.154Z,5.20
2023-04-27T00:55:28.629Z,5.20
2023-04-27T00:57:56.853Z,5.20
2023-04-27T01:00:25.663Z,5.20
2023-04-27T01:02:56.583Z,5.20
2023-04-27T01:05:27.133Z,5.20
2023-04-27T01:07:56.305Z,5.20
2023-04-27T01:10:24.694Z,5.10
2023-04-27T01:12:54.283Z,5.10
2023-04-27T01:15:22.572Z,5.10
2023-04-27T01:17:50.737Z,5.10
2023-04-27T01:20:20.271Z,5.10
2023-04-27T01:22:48.488Z,5.10
2023-04-27T01:25:20.092Z,5.10
2023-04-27T01:27:48.276Z,5.10
2023-04-27T01:30:18.523Z,5.00
2023-04-27T01:32:46.691Z,5.00
2023-04-27T01:35:14.903Z,5.00
2023-04-27T01:37:43.418Z,5.00
2023-04-27T01:40:13.582Z,5.00
2023-04-27T01:42:43.035Z,4.90
2023-04-27T01:45:12.830Z,4.90
2023-04-27T01:47:41.465Z,4.90
2023-04-27T01:50:10.666Z,4.80
2023-04-27T01:52:40.986Z,4.80
2023-04-27T01:55:10.040Z,4.70
2023-04-27T01:57:39.052Z,4.60
2023-04-27T02:00:10.602Z,4.60
2023-04-27T02:03:00.744Z,4.50
2023-04-27T02:05:29.756Z,4.40
2023-04-27T02:07:57.919Z,4.40
2023-04-27T02:10:26.245Z,4.30
2023-04-27T02:12:57.336Z,4.20
2023-04-27T02:15:26.972Z,4.20
2023-04-27T02:17:56.096Z,4.10
2023-04-27T02:20:24.401Z,4.10
2023-04-27T02:22:53.371Z,4.00
2023-04-27T02:25:21.837Z,3.90
2023-04-27T02:27:50.011Z,3.90
2023-04-27T02:30:18.749Z,3.80
2023-04-27T02:32:48.803Z,3.80
2023-04-27T02:35:17.139Z,3.70
2023-04-27T02:37:45.318Z,3.70
2023-04-27T02:40:16.602Z,3.60
2023-04-27T02:42:44.702Z,3.60
2023-04-27T02:45:13.222Z,3.50
2023-04-27T02:47:41.611Z,3.50
2023-04-27T02:50:13.625Z,3.40
2023-04-27T02:52:41.953Z,3.40
2023-04-27T02:55:11.417Z,3.30
2023-04-27T02:57:39.572Z,3.30
2023-04-27T03:00:11.423Z,3.20
2023-04-27T03:02:39.806Z,3.20
2023-04-27T03:05:09.134Z,3.10
2023-04-27T03:07:38.600Z,3.00
2023-04-27T03:10:07.538Z,3.00
2023-04-27T03:12:35.869Z,3.00
2023-04-27T03:15:05.002Z,2.90
2023-04-27T03:17:33.176Z,2.90
2023-04-27T03:20:01.464Z,2.80
2023-04-27T03:22:29.654Z,2.80
2023-04-27T03:24:59.080Z,2.80
2023-04-27T03:27:27.203Z,2.80
2023-04-27T03:29:55.329Z,2.70
2023-04-27T03:32:23.646Z,2.70
2023-04-27T03:34:52.260Z,2.70
2023-04-27T03:37:20.517Z,2.70
2023-04-27T03:39:48.764Z,2.70
2023-04-27T03:42:18.787Z,2.70
2023-04-27T03:44:47.016Z,2.70
2023-04-27T03:47:15.141Z,2.70
2023-04-27T03:49:45.189Z,2.70
2023-04-27T03:52:13.310Z,2.70
2023-04-27T03:54:41.550Z,2.80
2023-04-27T03:57:09.712Z,2.80
2023-04-27T03:59:39.161Z,2.90
2023-04-27T04:02:08.686Z,2.90
2023-04-27T04:04:38.388Z,3.00
2023-04-27T04:07:06.850Z,3.00
2023-04-27T04:09:35.366Z,3.10
2023-04-27T04:12:03.808Z,3.10
2023-04-27T04:14:32.024Z,3.20
2023-04-27T04:17:01.708Z,3.20
2023-04-27T04:19:29.926Z,3.20
2023-04-27T04:21:58.501Z,3.30
2023-04-27T04:24:26.670Z,3.30
2023-04-27T04:26:55.898Z,3.30
2023-04-27T04:29:24.156Z,3.40
2023-04-27T04:31:52.407Z,3.40
2023-04-27T04:34:22.836Z,3.40
2023-04-27T04:36:52.166Z,3.50
2023-04-27T04:39:21.494Z,3.50
2023-04-27T04:41:50.366Z,3.60
2023-04-27T04:44:20.189Z,3.70
2023-04-27T04:46:48.732Z,3.70
2023-04-27T04:49:16.994Z,3.80
2023-04-27T04:51:47.150Z,3.90
2023-04-27T04:54:15.276Z,3.90
2023-04-27T04:56:43.529Z,4.00
2023-04-27T04:59:11.810Z,4.10
2023-04-27T05:01:40.221Z,4.10
2023-04-27T05:04:08.760Z,4.10
2023-04-27T05:06:37.058Z,4.20
2023-04-27T05:09:07.123Z,4.30
2023-04-27T05:11:35.366Z,4.30
2023-04-27T05:14:03.566Z,4.40
2023-04-27T05:16:31.889Z,4.50
2023-04-27T05:19:00.120Z,4.50
2023-04-27T05:21:28.299Z,4.70
2023-04-27T05:23:56.390Z,4.80
2023-04-27T05:26:26.120Z,4.90
2023-04-27T05:28:54.209Z,5.00
2023-04-27T05:31:22.495Z,5.10
2023-04-27T05:33:51.200Z,5.20
2023-04-27T05:36:19.386Z,5.30
2023-04-27T05:38:47.522Z,5.40
2023-04-27T05:41:15.701Z,5.50
2023-04-27T05:43:45.282Z,5.60
2023-04-27T05:46:16.230Z,5.80
2023-04-27T05:48:44.431Z,5.80
2023-04-27T05:51:12.678Z,5.90
2023-04-27T05:53:41.207Z,6.00
2023-04-27T05:56:11.730Z,6.20
2023-04-27T05:58:40.008Z,6.20
2023-04-27T06:01:09.531Z,6.30
2023-04-27T06:03:37.855Z,6.40
2023-04-27T06:06:06.489Z,6.50
2023-04-27T06:08:37.281Z,6.60
2023-04-27T06:11:05.943Z,6.80
2023-04-27T06:13:34.190Z,6.90
2023-04-27T06:16:02.443Z,7.10
2023-04-27T06:18:32.430Z,7.20
2023-04-27T06:21:02.312Z,7.40
2023-04-27T06:23:30.719Z,7.50
2023-04-27T06:25:58.889Z,7.70
2023-04-27T06:28:27.183Z,7.80
2023-04-27T06:30:55.764Z,8.00
2023-04-27T06:33:23.948Z,8.10
2023-04-27T06:35:53.566Z,8.30
2023-04-27T06:38:22.177Z,8.40
2023-04-27T06:40:53.162Z,8.50
2023-04-27T06:43:21.701Z,8.70
2023-04-27T06:45:49.995Z,8.90
2023-04-27T06:48:18.385Z,9.00
2023-04-27T06:50:46.900Z,9.10
2023-04-27T06:53:17.293Z,9.20
2023-04-27T06:55:47.546Z,9.30
2023-04-27T06:58:16.863Z,9.50
2023-04-27T07:00:45.262Z,9.70
2023-04-27T07:03:13.661Z,9.80
2023-04-27T07:05:42.217Z,10.00
2023-04-27T07:08:10.582Z,10.20
2023-04-27T07:10:40.519Z,10.30
2023-04-27T07:13:09.637Z,10.50
2023-04-27T07:15:38.217Z,10.70
2023-04-27T07:18:06.677Z,10.80
2023-04-27T07:20:35.178Z,11.00
2023-04-27T07:23:03.978Z,11.10
2023-04-27T07:25:33.079Z,11.30
2023-04-27T07:28:02.607Z,11.50
2023-04-27T07:30:31.027Z,11.70
2023-04-27T07:33:00.938Z,11.90
2023-04-27T07:35:29.493Z,12.00
2023-04-27T07:37:57.855Z,12.10
2023-04-27T07:40:26.438Z,12.20
2023-04-27T07:42:55.063Z,12.40
2023-04-27T07:45:31.797Z,12.50
2023-04-27T07:48:00.507Z,12.70
2023-04-27T07:50:30.656Z,12.80
2023-04-27T07:52:59.393Z,13.00
2023-04-27T07:55:28.597Z,13.10
2023-04-27T07:57:58.092Z,13.30
2023-04-27T08:00:28.100Z,13.40
2023-04-27T08:02:56.828Z,13.50
2023-04-27T08:05:25.819Z,13.60
2023-04-27T08:07:54.722Z,13.70
2023-04-27T08:10:23.961Z,13.80
2023-04-27T08:12:52.414Z,14.00
2023-04-27T08:15:21.965Z,14.10
2023-04-27T08:17:51.790Z,14.20
2023-04-27T08:20:20.758Z,14.20
2023-04-27T08:22:49.035Z,14.30
2023-04-27T08:25:17.468Z,14.50
2023-04-27T08:27:45.792Z,14.50
2023-04-27T08:30:15.104Z,14.60
2023-04-27T08:32:43.380Z,14.80
2023-04-27T08:35:13.348Z,14.90
2023-04-27T08:37:41.645Z,15.10
2023-04-27T08:40:11.585Z,15.20
2023-04-27T08:42:43.055Z,15.30
2023-04-27T08:45:11.992Z,15.40
2023-04-27T08:47:43.855Z,15.50
2023-04-27T08:50:14.230Z,15.50
2023-04-27T08:52:45.371Z,15.60
2023-04-27T08:55:16.236Z,15.70
2023-04-27T08:57:56.946Z,15.90
2023-04-27T09:00:27.380Z,16.00
2023-04-27T09:02:55.800Z,16.00
2023-04-27T09:05:25.794Z,16.10
2023-04-27T09:08:05.274Z,16.20
2023-04-27T09:10:46.644Z,16.40
2023-04-27T09:13:15.348Z,16.70
2023-04-27T09:15:48.238Z,16.90
2023-04-27T09:18:19.404Z,17.10
2023-04-27T09:20:51.190Z,17.30
2023-04-27T09:23:29.500Z,17.50
2023-04-27T09:25:58.921Z,17.60
2023-04-27T09:28:30.839Z,17.60
2023-04-27T09:31:00.990Z,17.70
2023-04-27T09:33:32.172Z,17.80
2023-04-27T09:36:03.424Z,17.90
2023-04-27T09:38:32.915Z,18.20
2023-04-27T09:41:04.483Z,18.30
2023-04-27T09:43:33.249Z,18.40
2023-04-27T09:46:01.693Z,18.40
2023-04-27T09:48:29.883Z,18.50
2023-04-27T09:50:58.150Z,18.60
2023-04-27T09:53:37.834Z,18.60
2023-04-27T09:56:28.944Z,18.60
2023-04-27T09:59:21.604Z,18.90
2023-04-27T10:01:56.712Z,18.90
2023-04-27T10:04:56.335Z,19.10
2023-04-27T10:07:28.156Z,19.50
2023-04-27T10:10:04.036Z,19.90
2023-04-27T10:12:37.228Z,20.20
2023-04-27T10:15:15.395Z,20.60
2023-04-27T10:17:53.042Z,20.90
2023-04-27T10:20:31.815Z,21.20
2023-04-27T10:23:01.134Z,21.40
2023-04-27T10:25:38.951Z,21.50
2023-04-27T10:28:08.076Z,21.40
2023-04-27T10:30:38.875Z,21.40
2023-04-27T10:33:09.442Z,21.30
2023-04-27T10:35:42.820Z,21.20
2023-04-27T10:38:17.399Z,21.20
2023-04-27T10:40:57.661Z,21.40
2023-04-27T10:43:28.021Z,21.60
2023-04-27T10:45:56.893Z,21.80
2023-04-27T10:48:25.014Z,22.00
2023-04-27T10:50:53.234Z,22.30
2023-04-27T10:53:25.700Z,22.50
2023-04-27T10:55:58.955Z,22.50
2023-04-27T10:58:37.754Z,22.70
2023-04-27T11:01:38.531Z,22.90
2023-04-27T11:04:06.934Z,22.90
2023-04-27T11:06:45.736Z,22.70
2023-04-27T11:09:14.750Z,22.80
2023-04-27T11:11:47.723Z,22.80
2023-04-27T11:14:21.552Z,22.90
2023-04-27T11:16:50.591Z,22.90
2023-04-27T11:19:18.735Z,22.80
2023-04-27T11:21:47.447Z,22.90
2023-04-27T11:24:15.771Z,23.20
2023-04-27T11:26:44.062Z,23.30
2023-04-27T11:29:15.506Z,23.50
2023-04-27T11:31:48.559Z,23.30
2023-04-27T11:34:19.336Z,23.30
2023-04-27T11:37:10.678Z,23.50
2023-04-27T11:39:46.819Z,23.50
2023-04-27T11:42:20.602Z,23.20
2023-04-27T11:44:57.925Z,22.80
2023-04-27T11:47:29.266Z,22.30
2023-04-27T11:49:59.555Z,21.90
2023-04-27T11:52:30.458Z,21.60
2023-04-27T11:54:59.124Z,21.40
2023-04-27T11:57:28.993Z,21.20
2023-04-27T12:00:01.454Z,21.10
2023-04-27T12:02:31.739Z,21.20
2023-04-27T12:05:01.046Z,21.60
2023-04-27T12:07:29.482Z,21.90
2023-04-27T12:09:59.558Z,22.30
2023-04-27T12:12:29.305Z,22.70
2023-04-27T12:14:58.899Z,23.30
2023-04-27T12:17:27.141Z,23.40
2023-04-27T12:19:55.365Z,23.30
2023-04-27T12:22:23.756Z,23.20
2023-04-27T12:24:52.400Z,23.00
2023-04-27T12:27:20.594Z,22.90
2023-04-27T12:29:48.800Z,23.00
2023-04-27T12:32:18.359Z,23.60
2023-04-27T12:34:47.094Z,24.00
2023-04-27T12:37:15.249Z,24.30
2023-04-27T12:39:43.428Z,24.60
2023-04-27T12:42:11.693Z,24.80
2023-04-27T12:44:39.900Z,24.90
2023-04-27T12:47:08.196Z,25.00
2023-04-27T12:49:37.844Z,25.10
2023-04-27T12:52:06.367Z,25.40
2023-04-27T12:54:34.559Z,26.00
2023-04-27T12:57:06.651Z,26.40
2023-04-27T12:59:35.112Z,26.80
2023-04-27T13:02:05.972Z,27.10
2023-04-27T13:04:34.785Z,27.30
2023-04-27T13:07:04.533Z,27.40
2023-04-27T13:09:32.932Z,27.50
2023-04-27T13:12:01.887Z,27.80
2023-04-27T13:14:30.341Z,28.00
2023-04-27T13:16:58.587Z,27.70
2023-04-27T13:19:26.801Z,27.50
2023-04-27T13:21:55.133Z,27.60
2023-04-27T13:24:25.901Z,27.60
2023-04-27T13:26:54.151Z,27.80
2023-04-27T13:29:24.473Z,28.30
2023-04-27T13:31:52.970Z,28.60
2023-04-27T13:34:21.272Z,29.00
2023-04-27T13:36:49.673Z,28.90
2023-04-27T13:39:18.012Z,29.10
2023-04-27T13:41:47.621Z,28.20
2023-04-27T13:44:16.379Z,26.90
2023-04-27T13:46:44.866Z,25.80
2023-04-27T13:49:16.094Z,25.60
2023-04-27T13:51:44.259Z,26.30
2023-04-27T13:54:12.770Z,26.30
2023-04-27T13:56:41.165Z,26.10
2023-04-27T13:59:12.034Z,26.00
2023-04-27T14:01:40.336Z,25.80
2023-04-27T14:04:08.703Z,25.40
2023-04-27T14:06:37.240Z,25.20
2023-04-27T14:09:05.741Z,24.90
2023-04-27T14:11:39.625Z,24.60
2023-04-27T14:14:14.874Z,24.40
2023-04-27T14:16:43.080Z,24.20
2023-04-27T14:19:15.031Z,24.80
2023-04-27T14:21:43.660Z,26.20
2023-04-27T14:24:11.939Z,27.30
2023-04-27T14:26:43.819Z,27.60
2023-04-27T14:29:12.294Z,27.20
2023-04-27T14:31:42.420Z,26.40
2023-04-27T14:34:10.897Z,25.50
2023-04-27T14:36:39.351Z,25.00
2023-04-27T14:39:09.340Z,25.00
2023-04-27T14:41:38.232Z,25.60
2023-04-27T14:44:08.935Z,26.60
2023-04-27T14:46:38.120Z,27.60
2023-04-27T14:49:07.699Z,28.30
2023-04-27T14:51:35.956Z,28.70
2023-04-27T14:54:04.989Z,29.10
2023-04-27T14:56:33.677Z,29.60
2023-04-27T14:59:01.936Z,30.10
2023-04-27T15:01:30.296Z,30.70
2023-04-27T15:03:58.730Z,31.20
2023-04-27T15:06:30.219Z,31.70
2023-04-27T15:08:58.530Z,31.50
2023-04-27T15:11:26.815Z,32.00
2023-04-27T15:13:54.956Z,32.40
2023-04-27T15:16:23.156Z,32.80
2023-04-27T15:18:51.417Z,33.30
2023-04-27T15:21:19.618Z,33.50
2023-04-27T15:23:49.180Z,32.80
2023-04-27T15:26:17.343Z,31.20
2023-04-27T15:28:45.604Z,30.10
2023-04-27T15:31:14.032Z,29.30
2023-04-27T15:33:42.222Z,28.60
2023-04-27T15:36:11.178Z,27.80
2023-04-27T15:38:39.521Z,26.90
2023-04-27T15:41:09.216Z,26.10
2023-04-27T15:43:37.502Z,25.60
2023-04-27T15:46:05.976Z,25.10
2023-04-27T15:48:34.313Z,24.60
2023-04-27T15:51:02.732Z,24.30
2023-04-27T15:53:31.905Z,24.70
2023-04-27T15:56:00.126Z,25.10
2023-04-27T15:58:29.645Z,25.60
2023-04-27T16:00:59.929Z,26.50
2023-04-27T16:03:28.248Z,26.80
2023-04-27T16:05:56.577Z,26.60
2023-04-27T16:08:26.750Z,25.80
2023-04-27T16:10:55.474Z,25.10
2023-04-27T16:13:24.714Z,24.80
2023-04-27T16:15:54.238Z,24.40
2023-04-27T16:18:22.490Z,24.10
2023-04-27T16:20:50.658Z,23.80
2023-04-27T16:23:18.801Z,23.50
2023-04-27T16:25:46.935Z,23.70
2023-04-27T16:28:16.557Z,23.80
2023-04-27T16:30:44.868Z,23.60
2023-04-27T16:33:16.207Z,23.30
2023-04-27T16:35:44.436Z,22.90
2023-04-27T16:38:12.543Z,22.50
2023-04-27T16:40:40.790Z,22.20
2023-04-27T16:43:09.162Z,21.90
2023-04-27T16:45:38.494Z,21.50
2023-04-27T16:48:07.537Z,21.20
2023-04-27T16:50:37.533Z,20.90
2023-04-27T16:53:06.946Z,20.60
2023-04-27T16:55:35.628Z,20.40
2023-04-27T16:58:03.959Z,20.20
2023-04-27T17:00:32.379Z,20.00
2023-04-27T17:03:01.056Z,19.90
2023-04-27T17:05:29.496Z,19.70
2023-04-27T17:07:59.068Z,19.70
2023-04-27T17:10:27.736Z,19.70
2023-04-27T17:12:56.303Z,19.70
2023-04-27T17:15:25.920Z,19.80
2023-04-27T17:17:55.499Z,19.80
2023-04-27T17:20:23.707Z,19.70
2023-04-27T17:22:51.923Z,19.70
2023-04-27T17:25:21.975Z,19.60
2023-04-27T17:27:50.563Z,19.50
2023-04-27T17:30:18.738Z,19.40
2023-04-27T17:32:46.918Z,19.30
2023-04-27T17:35:15.058Z,19.20
2023-04-27T17:37:43.448Z,19.10
2023-04-27T17:40:13.895Z,19.10
2023-04-27T17:42:43.802Z,18.90
2023-04-27T17:45:12.574Z,18.80
2023-04-27T17:47:40.823Z,18.70
2023-04-27T17:50:10.769Z,18.50
2023-04-27T17:52:39.691Z,18.40
2023-04-27T17:55:08.700Z,18.20
2023-04-27T17:57:36.855Z,18.00
2023-04-27T18:00:10.137Z,17.80
2023-04-27T18:02:41.625Z,17.60
2023-04-27T18:05:10.535Z,17.40
2023-04-27T18:07:38.952Z,17.20
2023-04-27T18:10:09.101Z,17.00
2023-04-27T18:12:37.289Z,16.90
2023-04-27T18:15:09.879Z,16.70
2023-04-27T18:17:38.430Z,16.50
2023-04-27T18:20:10.159Z,16.30
2023-04-27T18:22:40.173Z,16.10
2023-04-27T18:25:10.699Z,15.90
2023-04-27T18:27:38.957Z,15.70
2023-04-27T18:30:09.947Z,15.50
2023-04-27T18:32:38.709Z,15.30
2023-04-27T18:35:08.188Z,15.10
2023-04-27T18:37:36.601Z,14.90
2023-04-27T18:40:06.066Z,14.70
2023-04-27T18:42:34.453Z,14.60
2023-04-27T18:45:02.733Z,14.40
2023-04-27T18:47:32.337Z,14.20
2023-04-27T18:50:00.599Z,14.00
2023-04-27T18:52:28.955Z,13.90
2023-04-27T18:54:57.223Z,13.70
2023-04-27T18:57:26.596Z,13.60
2023-04-27T18:59:54.846Z,13.40
2023-04-27T19:02:25.087Z,13.30
2023-04-27T19:05:11.427Z,13.20
2023-04-27T19:07:41.005Z,13.00
2023-04-27T19:10:10.958Z,12.90
2023-04-27T19:12:39.222Z,12.80
2023-04-27T19:15:08.621Z,12.60
2023-04-27T19:17:36.852Z,12.50
2023-04-27T19:20:08.146Z,12.40
2023-04-27T19:22:36.770Z,12.30
2023-04-27T19:25:05.991Z,12.20
2023-04-27T19:27:34.365Z,12.10
2023-04-27T19:30:04.045Z,11.90
2023-04-27T19:32:34.574Z,11.90
2023-04-27T19:35:03.265Z,11.70
2023-04-27T19:37:33.138Z,11.70
2023-04-27T19:40:01.498Z,11.60
2023-04-27T19:42:30.237Z,11.50
2023-04-27T19:44:58.547Z,11.40
2023-04-27T19:47:26.864Z,11.30
2023-04-27T19:49:55.180Z,11.30
2023-04-27T19:52:23.342Z,11.20
2023-04-27T19:54:53.950Z,11.10
2023-04-27T19:57:22.631Z,11.00
2023-04-27T19:59:50.851Z,11.00
2023-04-27T20:02:19.065Z,10.90
2023-04-27T20:04:47.552Z,10.80
2023-04-27T20:07:16.131Z,10.80
2023-04-27T20:09:44.443Z,10.70
2023-04-27T20:12:34.929Z,10.70
2023-04-27T20:15:02.170Z,10.70
2023-04-27T20:17:31.272Z,10.60
2023-04-27T20:19:59.549Z,10.60
2023-04-27T20:22:27.752Z,10.60
2023-04-27T20:24:58.904Z,10.50
2023-04-27T20:27:28.406Z,10.50
2023-04-27T20:29:56.644Z,10.50
2023-04-27T20:32:24.800Z,10.50
2023-04-27T20:34:53.067Z,10.40
2023-04-27T20:37:21.275Z,10.40
2023-04-27T20:39:49.614Z,10.40
2023-04-27T20:42:17.732Z,10.30
2023-04-27T20:44:48.444Z,10.30
2023-04-27T20:47:16.667Z,10.30
2023-04-27T20:49:44.797Z,10.30
2023-04-27T20:52:12.997Z,10.20
2023-04-27T20:54:41.725Z,10.20
2023-04-27T20:57:13.708Z,10.10
2023-04-27T20:59:42.180Z,10.10
2023-04-27T21:02:15.106Z,10.00
2023-04-27T21:04:43.440Z,9.90
2023-04-27T21:07:11.569Z,9.80
2023-04-27T21:09:39.797Z,9.80
2023-04-27T21:12:08.671Z,9.70
2023-04-27T21:14:37.421Z,9.70
2023-04-27T21:17:05.888Z,9.70
2023-04-27T21:19:35.475Z,9.60
2023-04-27T21:22:03.837Z,9.60
2023-04-27T21:24:32.111Z,9.50
2023-04-27T21:27:00.350Z,9.50
2023-04-27T21:29:28.852Z,9.40
2023-04-27T21:31:56.939Z,9.40
2023-04-27T21:34:25.088Z,9.40
2023-04-27T21:36:54.812Z,9.40
2023-04-27T21:39:22.944Z,9.40
2023-04-27T21:41:51.177Z,9.40
2023-04-27T21:44:19.360Z,9.40
2023-04-27T21:46:47.655Z,9.40
2023-04-27T21:49:15.932Z,9.40
2023-04-27T21:51:44.082Z,9.50
2023-04-27T21:54:13.862Z,9.50
2023-04-27T21:56:42.574Z,9.50
2023-04-27T21:59:10.707Z,9.50
2023-04-27T22:01:39.067Z,9.40
2023-04-27T22:04:07.440Z,9.40
2023-04-27T22:06:35.740Z,9.40
2023-04-27T22:09:05.832Z,9.40
2023-04-27T22:11:36.685Z,9.40
2023-04-27T22:14:04.940Z,9.40
2023-04-27T22:16:33.156Z,9.40
2023-04-27T22:19:01.366Z,9.40
2023-04-27T22:21:29.513Z,9.40
2023-04-27T22:23:57.615Z,9.40
2023-04-27T22:26:26.036Z,9.40
2023-04-27T22:28:55.484Z,9.40
2023-04-27T22:31:23.729Z,9.40
2023-04-27T22:33:52.052Z,9.40
2023-04-27T22:36:20.416Z,9.40
2023-04-27T22:38:48.623Z,9.50
2023-04-27T22:41:17.007Z,9.50
2023-04-27T22:43:45.080Z,9.50
2023-04-27T22:46:14.686Z,9.50
2023-04-27T22:48:43.583Z,9.50
2023-04-27T22:51:12.118Z,9.50
2023-04-27T22:53:40.470Z,9.50
2023-04-27T22:56:09.030Z,9.50
2023-04-27T22:58:37.253Z,9.50
2023-04-27T23:01:06.028Z,9.50
2023-04-27T23:03:35.630Z,9.50
2023-04-27T23:06:05.029Z,9.50
2023-04-27T23:08:33.183Z,9.50
2023-04-27T23:11:02.784Z,9.50
2023-04-27T23:13:31.465Z,9.50
2023-04-27T23:15:59.584Z,9.50
2023-04-27T23:18:27.811Z,9.50
2023-04-27T23:20:57.328Z,9.50
2023-04-27T23:23:25.512Z,9.50
2023-04-27T23:25:53.636Z,9.50
2023-04-27T23:28:22.414Z,9.50
2023-04-27T23:30:55.563Z,9.50
2023-04-27T23:33:27.525Z,9.50
2023-04-27T23:35:57.399Z,9.50
2023-04-27T23:38:25.629Z,9.50
2023-04-27T23:40:53.961Z,9.50
2023-04-27T23:43:22.401Z,9.50
2023-04-27T23:45:51.703Z,9.60
2023-04-27T23:48:20.219Z,9.60
2023-04-27T23:50:48.430Z,9.60
2023-04-27T23:53:18.154Z,9.60
2023-04-27T23:55:46.581Z,9.60
2023-04-27T23:58:14.963Z,9.50
